Alton, Virginia
Current Conditions -  °F | °C
As of 5:15 AM on Thursday 23 Oct 2014 (Local Time) from KW78 Reporting Station
Clear Clear  
Wind Chill: 44°   Ceiling: Unl
Heat Index: 48°   Visibility: 10mi
Dew Point: 39°   Wind: 8mph
Humidity: 72%   Direction: 290°WNW
Pressure: 29.99"   Gusts: NA
Location:  36.57°N, 79°W
Report Text: KW78 230915Z AUTO 29007KT 10SM CLR 09/04 A2999 RMK AO1 T00890040
Loading
Personal Weather Stations






























Interactive Weather Map
Tropical Storm Tracking
New forecast layout! Learn more

10-Day Weather Forecast

Advertisements
Track Severe Weather on mobile